Airfield :
LOGIN :

Register | Disclaimer

   EN    FR    IT 

 










Legend :    VFR   Marginal VFR   IFR   Intensive IFR   Very Intensive IFR
Visi :
Ceiling :
>= 8 km
>= 3000ft
5 to 8 km
1000 to 3000 ft
1500m to 5 km
500 to 1000 ft
800 to 1500m
200 to 500 ft
< 800m
< 200 ft
Symbols :   Thunderstorms  Fog  Heavy snow  Heavy precipitations  Wind > 20 kt
SIGMETs :     Misc.  Thunderstorms  Icing  Turbulence  Mountain Waves  Volcanic Ashes







- Airport Elevation : 3006 ft
- IATA code : LEN


LELN - Leon

CURRENT METAR :
  • 222000Z AUTO 27002KT 9999 NCD 18/12 Q1018

EXPIRED METARs :
  • 221930Z AUTO VRB01KT 9999 NCD 23/08 Q1018
  • 221900Z 00000KT 9999 FEW045 24/07 Q1018
  • 221830Z 15003KT 110V190 9999 FEW045 24/06 Q1018
  • 221800Z 19002KT 9999 FEW045 25/06 Q1018
  • 221730Z 14003KT 9999 FEW045 25/06 Q1018

TAF TAF LELN
Valid from the 22 at 18:00 until the 23 at 03:00 UTC


221700Z 2218/2303 VRB05KT 9999 FEW045
No reported NOTAMs for that airfield.
1 SIGMET reported for the Madrid FIR (LECM) :
 
SIGMET 3  cancelation
LECM SIGMET 1 VALID 220525/230000 LEVA
LECM MADRID FIR/UIR CNL SIGMET 3 212243/230000=



MET'MAP, your aeronautical weather chart ! - Copyright ORBIFLY December 2007 - Disclaimer

ORBIFLY MET'MAP TEAM :

Programming & Development : Alexandra Zaïnal
Concept & Development : Baudouin d'Aumeries
Co-Development & Prog : Marc-Olivier Méhu
Technical & hardware support : Manuel Goepfert

Contact : metmap@orbifly.com




SOURCES & CREDITS :

   NOAA